createdAt,value
2019-05-06T00:00:00.675Z,10.57
2019-05-06T00:02:28.946Z,15.07
2019-05-06T00:04:57.251Z,10.93
2019-05-06T00:07:25.528Z,7.67
2019-05-06T00:09:54.009Z,10.03
2019-05-06T00:12:23.960Z,8.67
2019-05-06T00:14:54.191Z,8.60
2019-05-06T00:17:23.970Z,9.87
2019-05-06T00:19:54.032Z,9.60
2019-05-06T00:22:23.760Z,8.60
2019-05-06T00:24:59.377Z,8.27
2019-05-06T00:27:29.302Z,9.13
2019-05-06T00:29:57.575Z,9.17
2019-05-06T00:32:25.861Z,9.63
2019-05-06T00:34:54.670Z,6.07
2019-05-06T00:37:24.123Z,6.53
2019-05-06T00:39:54.109Z,6.10
2019-05-06T00:42:24.690Z,11.43
2019-05-06T00:44:53.738Z,10.20
2019-05-06T00:47:24.113Z,11.10
2019-05-06T00:49:54.444Z,9.53
2019-05-06T00:52:23.940Z,9.53
2019-05-06T00:54:54.526Z,14.60
2019-05-06T00:57:24.102Z,9.53
2019-05-06T00:59:53.864Z,8.43
2019-05-06T01:02:23.438Z,8.70
2019-05-06T01:04:54.017Z,11.37
2019-05-06T01:07:23.676Z,6.23
2019-05-06T01:09:54.022Z,8.63
2019-05-06T01:12:24.012Z,9.37
2019-05-06T01:14:54.510Z,7.47
2019-05-06T01:17:24.349Z,8.90
2019-05-06T01:19:54.087Z,8.27
2019-05-06T01:22:24.506Z,12.57
2019-05-06T01:24:52.587Z,7.40
2019-05-06T01:27:20.854Z,9.30
2019-05-06T01:29:49.276Z,11.07
2019-05-06T01:32:17.560Z,7.43
2019-05-06T01:34:45.835Z,6.93
2019-05-06T01:37:14.344Z,9.20
2019-05-06T01:39:46.987Z,7.17
2019-05-06T01:42:19.699Z,6.27
2019-05-06T01:44:47.981Z,8.90
2019-05-06T01:47:16.289Z,9.50
2019-05-06T01:49:44.580Z,10.50
2019-05-06T01:52:14.651Z,12.93
2019-05-06T01:54:43.487Z,6.70
2019-05-06T01:57:13.676Z,6.80
2019-05-06T01:59:41.738Z,8.77
2019-05-06T02:02:10.011Z,10.90
2019-05-06T02:04:38.301Z,9.30
2019-05-06T02:07:06.578Z,9.23
2019-05-06T02:09:34.950Z,8.83
2019-05-06T02:12:04.596Z,8.73
2019-05-06T02:14:34.128Z,9.97
2019-05-06T02:17:03.608Z,8.27
2019-05-06T02:19:32.118Z,9.77
2019-05-06T02:22:04.778Z,12.80
2019-05-06T02:24:34.686Z,8.63
2019-05-06T02:27:04.495Z,7.10
2019-05-06T02:29:39.952Z,8.70
2019-05-06T02:32:21.158Z,11.87
2019-05-06T02:35:00.487Z,10.23
2019-05-06T02:37:36.617Z,10.73
2019-05-06T02:40:08.072Z,10.93
2019-05-06T02:42:36.370Z,8.57
2019-05-06T02:45:05.373Z,10.50
2019-05-06T02:47:53.542Z,10.13
2019-05-06T02:50:23.985Z,8.87
2019-05-06T02:52:53.794Z,12.73
2019-05-06T02:55:23.579Z,9.77
2019-05-06T02:57:53.633Z,14.80
2019-05-06T03:00:23.867Z,19.37
2019-05-06T03:02:54.087Z,15.53
2019-05-06T03:05:23.688Z,10.60
2019-05-06T03:07:57.090Z,11.40
2019-05-06T03:10:24.777Z,10.37
2019-05-06T03:12:53.732Z,7.77
2019-05-06T03:15:24.075Z,9.60
2019-05-06T03:17:55.351Z,12.73
2019-05-06T03:20:59.313Z,8.77
2019-05-06T03:23:34.846Z,9.93
2019-05-06T03:26:03.741Z,11.80
2019-05-06T03:28:33.401Z,13.87
2019-05-06T03:31:06.958Z,9.07
2019-05-06T03:33:50.597Z,13.53
2019-05-06T03:36:14.064Z,10.90
2019-05-06T03:38:33.556Z,9.97
2019-05-06T03:41:03.034Z,9.90
2019-05-06T03:43:33.790Z,9.17
2019-05-06T03:46:05.994Z,9.43
2019-05-06T03:48:38.765Z,9.97
2019-05-06T03:51:07.096Z,10.73
2019-05-06T03:53:36.221Z,11.37
2019-05-06T03:56:04.887Z,7.73
2019-05-06T03:58:34.994Z,9.03
2019-05-06T04:01:03.855Z,9.93
2019-05-06T04:03:44.030Z,8.00
2019-05-06T04:06:04.401Z,12.60
2019-05-06T04:08:34.342Z,7.63
2019-05-06T04:11:16.296Z,9.47
2019-05-06T04:13:46.334Z,9.77
2019-05-06T04:16:28.036Z,10.40
2019-05-06T04:19:06.899Z,9.73
2019-05-06T04:21:53.486Z,10.90
2019-05-06T04:24:26.164Z,8.27
2019-05-06T04:27:03.080Z,8.80
2019-05-06T04:29:33.112Z,9.07
2019-05-06T04:32:03.489Z,13.37
2019-05-06T04:34:33.294Z,9.40
2019-05-06T04:37:03.569Z,8.23
2019-05-06T04:39:33.102Z,10.43
2019-05-06T04:42:03.489Z,11.10
2019-05-06T04:44:33.068Z,8.77
2019-05-06T04:47:05.049Z,10.33
2019-05-06T04:49:33.098Z,11.33
2019-05-06T04:52:03.584Z,13.90
2019-05-06T04:54:33.632Z,10.60
2019-05-06T04:57:04.845Z,10.13
2019-05-06T04:59:32.575Z,9.80
2019-05-06T05:02:02.643Z,12.50
2019-05-06T05:04:33.623Z,11.70
2019-05-06T05:07:03.359Z,11.30
2019-05-06T05:09:32.544Z,12.17
2019-05-06T05:12:19.021Z,9.60
2019-05-06T05:14:52.112Z,10.03
2019-05-06T05:17:22.445Z,7.90
2019-05-06T05:19:52.308Z,12.07
2019-05-06T05:22:21.906Z,13.47
2019-05-06T05:24:52.107Z,10.73
2019-05-06T05:27:21.950Z,10.93
2019-05-06T05:29:52.190Z,13.80
2019-05-06T05:32:22.452Z,13.03
2019-05-06T05:34:52.227Z,9.67
2019-05-06T05:37:22.621Z,12.77
2019-05-06T05:39:52.014Z,11.80
2019-05-06T05:42:28.164Z,11.57
2019-05-06T05:44:56.445Z,13.60
2019-05-06T05:47:24.798Z,13.47
2019-05-06T05:50:03.669Z,18.23
2019-05-06T05:52:32.952Z,11.10
2019-05-06T05:55:02.844Z,13.00
2019-05-06T05:57:32.193Z,14.47
2019-05-06T06:00:03.705Z,14.20
2019-05-06T06:02:33.270Z,15.57
2019-05-06T06:05:02.563Z,13.00
2019-05-06T06:07:32.738Z,14.97
2019-05-06T06:10:05.893Z,11.57
2019-05-06T06:12:34.275Z,11.40
2019-05-06T06:15:04.186Z,15.00
2019-05-06T06:17:46.308Z,18.67
2019-05-06T06:20:32.845Z,14.10
2019-05-06T06:23:02.983Z,14.30
2019-05-06T06:25:33.438Z,11.90
2019-05-06T06:28:02.679Z,14.30
2019-05-06T06:30:35.143Z,13.77
2019-05-06T06:33:03.496Z,19.43
2019-05-06T06:35:42.655Z,12.67
2019-05-06T06:38:32.323Z,15.57
2019-05-06T06:41:02.727Z,17.00
2019-05-06T06:43:32.447Z,15.50
2019-05-06T06:46:02.529Z,12.53
2019-05-06T06:48:32.042Z,13.03
2019-05-06T06:51:03.276Z,14.13
2019-05-06T06:53:32.594Z,17.93
2019-05-06T06:56:18.255Z,14.77
2019-05-06T06:59:02.578Z,12.27
2019-05-06T07:01:45.040Z,18.03
2019-05-06T07:04:14.978Z,14.03
2019-05-06T07:06:45.272Z,10.33
2019-05-06T07:09:13.540Z,18.43
2019-05-06T07:11:42.788Z,19.40
2019-05-06T07:14:11.298Z,19.07
2019-05-06T07:16:39.697Z,17.27
2019-05-06T07:19:07.932Z,11.60
2019-05-06T07:21:38.430Z,16.83
2019-05-06T07:24:07.262Z,16.73
2019-05-06T07:26:37.189Z,13.93
2019-05-06T07:29:14.143Z,14.33
2019-05-06T07:31:38.186Z,16.10
2019-05-06T07:34:06.465Z,13.33
2019-05-06T07:36:34.756Z,14.27
2019-05-06T07:39:04.360Z,12.70
2019-05-06T07:41:36.839Z,17.57
2019-05-06T07:44:18.810Z,16.57
2019-05-06T07:46:54.607Z,20.20
2019-05-06T07:49:23.562Z,11.97
2019-05-06T07:51:53.003Z,14.90
2019-05-06T07:54:22.027Z,13.23
2019-05-06T07:56:52.658Z,16.93
2019-05-06T07:59:22.449Z,14.00
2019-05-06T08:01:50.719Z,13.70
2019-05-06T08:04:18.997Z,12.30
2019-05-06T08:06:47.268Z,14.53
2019-05-06T08:09:15.562Z,11.27
2019-05-06T08:11:43.825Z,11.97
2019-05-06T08:14:13.057Z,17.57
2019-05-06T08:16:44.500Z,12.63
2019-05-06T08:19:12.907Z,18.10
2019-05-06T08:21:48.476Z,15.17
2019-05-06T08:24:16.787Z,11.87
2019-05-06T08:26:45.062Z,17.50
2019-05-06T08:29:15.934Z,15.77
2019-05-06T08:31:43.367Z,17.20
2019-05-06T08:34:12.260Z,13.47
2019-05-06T08:36:42.781Z,15.53
2019-05-06T08:39:13.047Z,16.47
2019-05-06T08:41:42.323Z,15.07
2019-05-06T08:44:12.597Z,12.27
2019-05-06T08:46:42.846Z,9.37
2019-05-06T08:49:12.273Z,8.47
2019-05-06T08:51:42.771Z,9.73
2019-05-06T08:54:27.862Z,11.10
2019-05-06T08:56:56.414Z,12.40
2019-05-06T08:59:24.701Z,9.60
2019-05-06T09:01:57.743Z,12.80
2019-05-06T09:04:26.046Z,10.03
2019-05-06T09:06:54.317Z,9.47
2019-05-06T09:09:22.645Z,11.40
2019-05-06T09:11:53.255Z,8.80
2019-05-06T09:14:23.276Z,11.17
2019-05-06T09:16:53.696Z,10.40
2019-05-06T09:19:23.276Z,10.10
2019-05-06T09:21:53.257Z,8.47
2019-05-06T09:24:23.077Z,7.90
2019-05-06T09:26:52.985Z,5.87
2019-05-06T09:29:23.158Z,6.73
2019-05-06T09:31:56.083Z,6.20
2019-05-06T09:34:28.912Z,9.40
2019-05-06T09:37:15.027Z,6.03
2019-05-06T09:39:45.028Z,7.67
2019-05-06T09:42:14.260Z,5.43
2019-05-06T09:44:43.787Z,6.80
2019-05-06T09:47:13.851Z,4.90
2019-05-06T09:49:43.839Z,6.63
2019-05-06T09:52:12.964Z,6.40
2019-05-06T09:54:45.968Z,7.23
2019-05-06T09:57:27.968Z,5.03
2019-05-06T09:59:56.248Z,6.83
2019-05-06T10:02:24.626Z,8.37
2019-05-06T10:04:52.956Z,8.00
2019-05-06T10:07:22.547Z,11.27
2019-05-06T10:09:52.716Z,6.87
2019-05-06T10:12:21.194Z,10.77
2019-05-06T10:14:49.543Z,9.03
2019-05-06T10:17:17.903Z,9.60
2019-05-06T10:19:46.184Z,8.03
2019-05-06T10:22:14.485Z,15.27
2019-05-06T10:24:43.352Z,7.87
2019-05-06T10:27:12.277Z,13.40
2019-05-06T10:29:54.486Z,9.07
2019-05-06T10:32:24.412Z,12.13
2019-05-06T10:34:52.812Z,10.00
2019-05-06T10:37:33.662Z,9.20
2019-05-06T10:40:07.911Z,12.27
2019-05-06T10:42:39.632Z,11.70
2019-05-06T10:45:27.350Z,8.63
2019-05-06T10:47:55.992Z,10.40
2019-05-06T10:50:24.520Z,8.83
2019-05-06T10:53:13.371Z,10.43
2019-05-06T10:55:42.794Z,9.83
2019-05-06T10:58:12.836Z,14.83
2019-05-06T11:00:42.517Z,11.33
2019-05-06T11:03:15.736Z,11.63
2019-05-06T11:05:44.291Z,11.63
2019-05-06T11:08:12.731Z,10.77
2019-05-06T11:10:44.932Z,10.53
2019-05-06T11:13:12.862Z,11.87
2019-05-06T11:15:43.362Z,7.83
2019-05-06T11:18:13.535Z,12.60
2019-05-06T11:20:43.632Z,10.47
2019-05-06T11:23:11.158Z,12.73
2019-05-06T11:25:39.453Z,14.93
2019-05-06T11:28:09.375Z,11.60
2019-05-06T11:30:39.308Z,9.17
2019-05-06T11:33:25.462Z,12.67
2019-05-06T11:36:01.130Z,12.30
2019-05-06T11:38:29.418Z,15.27
2019-05-06T11:40:57.721Z,9.53
2019-05-06T11:43:26.001Z,10.10
2019-05-06T11:45:54.298Z,11.77
2019-05-06T11:48:22.578Z,13.00
2019-05-06T11:50:52.518Z,10.07
2019-05-06T11:53:22.961Z,13.23
2019-05-06T11:55:54.435Z,10.83
2019-05-06T11:58:38.908Z,10.43
2019-05-06T12:01:13.437Z,11.77
2019-05-06T12:03:42.672Z,12.23
2019-05-06T12:06:13.099Z,8.07
2019-05-06T12:08:43.145Z,8.57
2019-05-06T12:11:12.537Z,10.30
2019-05-06T12:13:42.509Z,10.97
2019-05-06T12:16:14.192Z,10.80
2019-05-06T12:18:42.237Z,12.03
2019-05-06T12:21:14.593Z,10.27
2019-05-06T12:23:44.890Z,11.57
2019-05-06T12:26:13.242Z,11.73
2019-05-06T12:28:43.441Z,9.63
2019-05-06T12:31:12.642Z,11.40
2019-05-06T12:33:42.868Z,10.57
2019-05-06T12:36:14.067Z,9.67
2019-05-06T12:39:00.094Z,8.63
2019-05-06T12:41:28.366Z,10.40
2019-05-06T12:43:56.732Z,12.00
2019-05-06T12:46:26.649Z,8.73
2019-05-06T12:49:03.205Z,6.70
2019-05-06T12:51:32.265Z,8.10
2019-05-06T12:54:03.343Z,9.07
2019-05-06T12:56:30.777Z,7.03
2019-05-06T12:58:59.068Z,6.90
2019-05-06T13:01:27.349Z,7.30
2019-05-06T13:03:55.646Z,7.30
2019-05-06T13:06:26.238Z,5.70
2019-05-06T13:09:01.504Z,5.67
2019-05-06T13:11:24.383Z,7.17
2019-05-06T13:14:00.111Z,7.83
2019-05-06T13:16:22.973Z,15.27
2019-05-06T13:18:52.502Z,7.20
2019-05-06T13:21:22.330Z,6.20
2019-05-06T13:23:54.939Z,7.40
2019-05-06T13:26:23.217Z,7.43
2019-05-06T13:28:53.312Z,9.50
2019-05-06T13:31:25.425Z,12.97
2019-05-06T13:33:54.455Z,9.27
2019-05-06T13:36:23.289Z,7.63
2019-05-06T13:39:09.153Z,9.73
2019-05-06T13:41:22.511Z,13.07
2019-05-06T13:43:55.356Z,8.33
2019-05-06T13:46:25.299Z,8.17
2019-05-06T13:49:02.779Z,8.60
2019-05-06T13:51:38.234Z,8.93
2019-05-06T13:54:06.849Z,8.53
2019-05-06T13:56:35.147Z,8.83
2019-05-06T13:59:05.105Z,9.67
2019-05-06T14:01:43.803Z,8.60
2019-05-06T14:04:13.032Z,10.07
2019-05-06T14:06:43.216Z,11.13
2019-05-06T14:09:28.007Z,11.53
2019-05-06T14:11:41.982Z,10.10
2019-05-06T14:14:12.589Z,10.87
2019-05-06T14:16:42.730Z,11.23
2019-05-06T14:19:10.367Z,13.07
2019-05-06T14:21:38.664Z,10.10
2019-05-06T14:24:06.943Z,7.70
2019-05-06T14:26:39.704Z,11.27
2019-05-06T14:29:12.819Z,11.17
2019-05-06T14:31:43.646Z,12.33
2019-05-06T14:34:14.243Z,10.87
2019-05-06T14:36:43.368Z,9.13
2019-05-06T14:39:16.111Z,13.60
2019-05-06T14:41:46.082Z,13.83
2019-05-06T14:44:14.350Z,13.43
2019-05-06T14:46:53.104Z,11.60
2019-05-06T14:49:22.501Z,11.93
2019-05-06T14:51:50.840Z,12.77
2019-05-06T14:54:22.162Z,8.30
2019-05-06T14:56:53.378Z,11.60
2019-05-06T14:59:23.426Z,11.13
2019-05-06T15:01:53.612Z,12.13
2019-05-06T15:04:22.953Z,10.53
2019-05-06T15:06:52.968Z,11.37
2019-05-06T15:09:22.643Z,10.10
2019-05-06T15:11:51.133Z,11.60
2019-05-06T15:14:19.432Z,8.43
2019-05-06T15:16:47.717Z,12.07
2019-05-06T15:19:16.017Z,8.57
2019-05-06T15:21:44.307Z,14.20
2019-05-06T15:24:13.784Z,9.03
2019-05-06T15:26:42.676Z,8.13
2019-05-06T15:29:12.693Z,9.00
2019-05-06T15:31:45.953Z,9.27
2019-05-06T15:34:24.720Z,8.27
2019-05-06T15:36:54.641Z,9.20
2019-05-06T15:39:23.569Z,8.80
2019-05-06T15:41:52.179Z,7.93
2019-05-06T15:44:20.462Z,11.13
2019-05-06T15:46:48.749Z,12.27
2019-05-06T15:49:17.328Z,7.50
2019-05-06T15:51:45.610Z,8.63
2019-05-06T15:54:13.912Z,17.03
2019-05-06T15:56:42.419Z,10.07
2019-05-06T15:59:12.101Z,10.03
2019-05-06T16:01:42.632Z,11.27
2019-05-06T16:04:12.201Z,11.63
2019-05-06T16:06:44.489Z,10.87
2019-05-06T16:09:14.167Z,8.67
2019-05-06T16:11:41.863Z,13.43
2019-05-06T16:14:12.382Z,12.23
2019-05-06T16:16:42.961Z,15.60
2019-05-06T16:19:12.810Z,12.80
2019-05-06T16:21:44.997Z,15.67
2019-05-06T16:24:12.931Z,15.53
2019-05-06T16:26:42.482Z,15.53
2019-05-06T16:29:13.051Z,16.43
2019-05-06T16:31:42.267Z,18.60
2019-05-06T16:34:12.079Z,15.00
2019-05-06T16:36:52.087Z,14.87
2019-05-06T16:39:20.849Z,13.37
2019-05-06T16:41:52.197Z,16.03
2019-05-06T16:44:20.588Z,19.33
2019-05-06T16:46:48.873Z,19.83
2019-05-06T16:49:17.189Z,15.53
2019-05-06T16:51:45.474Z,16.50
2019-05-06T16:54:13.765Z,19.30
2019-05-06T16:56:49.440Z,17.03
2019-05-06T16:59:17.723Z,14.53
2019-05-06T17:01:46.618Z,14.63
2019-05-06T17:04:18.994Z,19.60
2019-05-06T17:06:48.376Z,13.80
2019-05-06T17:09:21.156Z,16.73
2019-05-06T17:11:46.705Z,18.63
2019-05-06T17:14:14.992Z,15.30
2019-05-06T17:16:43.411Z,16.03
2019-05-06T17:19:12.723Z,16.67
2019-05-06T17:21:42.363Z,16.10
2019-05-06T17:24:12.875Z,18.20
2019-05-06T17:26:42.611Z,18.50
2019-05-06T17:29:14.071Z,17.30
2019-05-06T17:31:46.812Z,17.60
2019-05-06T17:34:31.716Z,16.73
2019-05-06T17:37:04.362Z,14.90
2019-05-06T17:39:32.887Z,14.43
2019-05-06T17:42:01.113Z,14.77
2019-05-06T17:44:29.409Z,14.63
2019-05-06T17:47:05.013Z,14.97
2019-05-06T17:49:38.158Z,17.13
2019-05-06T17:52:08.147Z,15.13
2019-05-06T17:54:36.508Z,16.73
2019-05-06T17:57:04.936Z,15.67
2019-05-06T17:59:36.846Z,20.67
2019-05-06T18:02:04.911Z,17.67
2019-05-06T18:04:34.371Z,18.03
2019-05-06T18:07:02.822Z,20.30
2019-05-06T18:09:35.259Z,21.33
2019-05-06T18:12:03.624Z,17.23
2019-05-06T18:14:33.123Z,16.73
2019-05-06T18:17:03.649Z,17.93
2019-05-06T18:19:33.125Z,21.03
2019-05-06T18:22:02.515Z,19.43
2019-05-06T18:24:33.227Z,19.70
2019-05-06T18:27:07.320Z,19.53
2019-05-06T18:29:35.864Z,18.53
2019-05-06T18:32:04.164Z,17.23
2019-05-06T18:34:33.155Z,20.87
2019-05-06T18:37:03.144Z,19.20
2019-05-06T18:39:33.634Z,19.00
2019-05-06T18:42:15.511Z,21.40
2019-05-06T18:44:33.706Z,17.73
2019-05-06T18:47:02.747Z,20.07
2019-05-06T18:49:33.728Z,18.43
2019-05-06T18:52:02.006Z,16.57
2019-05-06T18:54:30.420Z,16.10
2019-05-06T18:56:58.716Z,15.07
2019-05-06T18:59:27.069Z,14.97
2019-05-06T19:01:55.354Z,16.73
2019-05-06T19:04:25.315Z,19.47
2019-05-06T19:07:08.730Z,17.40
2019-05-06T19:09:25.352Z,17.43
2019-05-06T19:11:54.512Z,16.80
2019-05-06T19:14:23.175Z,20.17
2019-05-06T19:16:52.937Z,17.13
2019-05-06T19:19:23.344Z,16.73
2019-05-06T19:21:52.408Z,18.57
2019-05-06T19:24:22.673Z,17.43
2019-05-06T19:26:52.756Z,17.83
2019-05-06T19:29:22.990Z,16.97
2019-05-06T19:31:52.179Z,17.33
2019-05-06T19:34:20.546Z,19.03
2019-05-06T19:36:48.848Z,18.73
2019-05-06T19:39:17.209Z,17.07
2019-05-06T19:41:45.572Z,18.77
2019-05-06T19:44:13.882Z,20.23
2019-05-06T19:46:43.737Z,17.07
2019-05-06T19:49:12.041Z,16.90
2019-05-06T19:51:40.318Z,17.80
2019-05-06T19:54:08.609Z,16.57
2019-05-06T19:56:36.923Z,17.97
2019-05-06T19:59:12.963Z,15.43
2019-05-06T20:01:42.925Z,15.17
2019-05-06T20:04:13.196Z,16.73
2019-05-06T20:06:46.365Z,16.50
2019-05-06T20:09:25.078Z,17.50
2019-05-06T20:11:57.781Z,14.30
2019-05-06T20:14:26.055Z,17.40
2019-05-06T20:16:54.458Z,14.33
2019-05-06T20:19:30.695Z,14.63
2019-05-06T20:21:52.871Z,14.93
2019-05-06T20:24:22.494Z,17.77
2019-05-06T20:26:52.748Z,12.60
2019-05-06T20:29:22.463Z,14.53
2019-05-06T20:31:53.328Z,13.63
2019-05-06T20:34:22.434Z,14.67
2019-05-06T20:36:52.888Z,15.37
2019-05-06T20:39:23.016Z,14.93
2019-05-06T20:41:51.064Z,17.53
2019-05-06T20:44:19.385Z,16.00
2019-05-06T20:46:49.653Z,17.97
2019-05-06T20:49:17.962Z,15.60
2019-05-06T20:51:46.246Z,15.57
2019-05-06T20:54:14.559Z,15.83
2019-05-06T20:56:42.848Z,16.10
2019-05-06T20:59:12.185Z,15.63
2019-05-06T21:01:42.495Z,17.57
2019-05-06T21:04:12.896Z,16.30
2019-05-06T21:06:42.621Z,16.93
2019-05-06T21:09:12.596Z,15.47
2019-05-06T21:11:42.117Z,19.93
2019-05-06T21:14:13.075Z,19.43
2019-05-06T21:16:42.300Z,18.00
2019-05-06T21:19:12.684Z,15.63
2019-05-06T21:21:42.975Z,16.73
2019-05-06T21:24:12.812Z,17.10
2019-05-06T21:26:42.833Z,16.23
2019-05-06T21:29:12.789Z,18.17
2019-05-06T21:31:42.243Z,18.43
2019-05-06T21:34:12.659Z,17.40
2019-05-06T21:36:42.300Z,17.93
2019-05-06T21:39:12.819Z,21.50
2019-05-06T21:41:42.727Z,16.20
2019-05-06T21:44:12.978Z,17.37
2019-05-06T21:46:42.802Z,16.87
2019-05-06T21:49:12.128Z,18.50
2019-05-06T21:51:42.600Z,20.37
2019-05-06T21:54:12.535Z,18.30
2019-05-06T21:56:42.433Z,17.17
2019-05-06T21:59:12.714Z,16.50
2019-05-06T22:01:43.021Z,20.33
2019-05-06T22:04:12.740Z,18.17
2019-05-06T22:06:42.771Z,17.37
2019-05-06T22:09:12.705Z,17.20
2019-05-06T22:11:42.318Z,18.40
2019-05-06T22:14:12.230Z,17.60
2019-05-06T22:16:40.724Z,21.40
2019-05-06T22:19:09.031Z,19.77
2019-05-06T22:21:39.010Z,24.10
2019-05-06T22:24:07.308Z,20.67
2019-05-06T22:26:35.588Z,17.20
2019-05-06T22:29:04.092Z,17.83
2019-05-06T22:31:33.135Z,17.57
2019-05-06T22:34:01.574Z,17.80
2019-05-06T22:36:32.024Z,20.93
2019-05-06T22:38:59.878Z,22.47
2019-05-06T22:41:28.177Z,17.73
2019-05-06T22:43:56.459Z,18.53
2019-05-06T22:46:24.768Z,21.27
2019-05-06T22:48:54.582Z,18.87
2019-05-06T22:51:23.294Z,18.23
2019-05-06T22:53:53.268Z,20.53
2019-05-06T22:56:22.825Z,20.70
2019-05-06T22:58:52.428Z,23.13
2019-05-06T23:01:32.513Z,19.47
2019-05-06T23:04:02.023Z,20.03
2019-05-06T23:06:32.727Z,18.97
2019-05-06T23:09:02.494Z,18.13
2019-05-06T23:11:32.337Z,20.80
2019-05-06T23:14:02.533Z,18.33
2019-05-06T23:16:33.096Z,19.70
2019-05-06T23:19:02.101Z,19.63
2019-05-06T23:21:30.564Z,18.63
2019-05-06T23:23:58.840Z,20.80
2019-05-06T23:26:27.139Z,21.50
2019-05-06T23:28:55.427Z,20.43
2019-05-06T23:31:24.521Z,18.13
2019-05-06T23:33:53.454Z,18.83
2019-05-06T23:36:22.876Z,20.13
2019-05-06T23:39:27.607Z,17.53
2019-05-06T23:42:32.366Z,21.57
2019-05-06T23:45:37.343Z,22.43
2019-05-06T23:48:42.985Z,19.73
2019-05-06T23:51:47.999Z,20.33
2019-05-06T23:54:53.044Z,21.13
2019-05-06T23:57:20.306Z,16.97
2019-05-06T23:59:48.594Z,19.20
